sensor_id;sensor_type;location;lat;lon;timestamp;pressure;altitude;pressure_sealevel;temperature;humidity
35443;BME280;21561;55.654;37.592;2022-12-07T00:01:23;100602.69;;;-9.09;60.63
35443;BME280;21561;55.654;37.592;2022-12-07T00:03:53;100596.66;;;-9.11;60.79
35443;BME280;21561;55.654;37.592;2022-12-07T00:06:20;100604.78;;;-9.13;61.02
35443;BME280;21561;55.654;37.592;2022-12-07T00:08:47;100607.22;;;-9.15;60.99
35443;BME280;21561;55.654;37.592;2022-12-07T00:11:19;100603.06;;;-9.14;60.83
35443;BME280;21561;55.654;37.592;2022-12-07T00:13:51;100601.03;;;-9.18;60.69
35443;BME280;21561;55.654;37.592;2022-12-07T00:16:20;100604.41;;;-9.18;61.56
35443;BME280;21561;55.654;37.592;2022-12-07T00:18:49;100602.50;;;-9.21;60.95
35443;BME280;21561;55.654;37.592;2022-12-07T00:21:22;100590.06;;;-9.19;61.01
35443;BME280;21561;55.654;37.592;2022-12-07T00:23:50;100601.34;;;-9.24;61.14
35443;BME280;21561;55.654;37.592;2022-12-07T00:26:23;100600.75;;;-9.22;61.28
35443;BME280;21561;55.654;37.592;2022-12-07T00:28:53;100606.66;;;-9.21;60.81
35443;BME280;21561;55.654;37.592;2022-12-07T00:31:24;100574.47;;;-9.25;60.16
35443;BME280;21561;55.654;37.592;2022-12-07T00:33:51;100577.72;;;-9.26;60.55
35443;BME280;21561;55.654;37.592;2022-12-07T00:36:22;100579.50;;;-9.25;60.54
35443;BME280;21561;55.654;37.592;2022-12-07T00:38:53;100590.28;;;-9.26;61.22
35443;BME280;21561;55.654;37.592;2022-12-07T00:41:23;100568.56;;;-9.26;60.17
35443;BME280;21561;55.654;37.592;2022-12-07T00:43:51;100558.63;;;-9.24;60.42
35443;BME280;21561;55.654;37.592;2022-12-07T00:46:19;100576.22;;;-9.24;60.58
35443;BME280;21561;55.654;37.592;2022-12-07T00:48:47;100550.63;;;-9.20;59.87
35443;BME280;21561;55.654;37.592;2022-12-07T00:51:16;100546.31;;;-9.21;59.86
35443;BME280;21561;55.654;37.592;2022-12-07T00:53:43;100554.63;;;-9.22;60.03
35443;BME280;21561;55.654;37.592;2022-12-07T00:56:16;100563.19;;;-9.20;60.10
35443;BME280;21561;55.654;37.592;2022-12-07T00:58:43;100558.63;;;-9.24;60.51
35443;BME280;21561;55.654;37.592;2022-12-07T01:01:10;100563.66;;;-9.24;60.51
35443;BME280;21561;55.654;37.592;2022-12-07T01:03:38;100563.03;;;-9.22;59.74
35443;BME280;21561;55.654;37.592;2022-12-07T01:06:05;100552.56;;;-9.26;59.66
35443;BME280;21561;55.654;37.592;2022-12-07T01:08:33;100545.81;;;-9.27;60.01
35443;BME280;21561;55.654;37.592;2022-12-07T01:11:05;100545.81;;;-9.27;59.71
35443;BME280;21561;55.654;37.592;2022-12-07T01:13:33;100546.53;;;-9.28;60.37
35443;BME280;21561;55.654;37.592;2022-12-07T01:16:02;100552.56;;;-9.26;59.71
35443;BME280;21561;55.654;37.592;2022-12-07T01:18:31;100537.50;;;-9.26;59.75
35443;BME280;21561;55.654;37.592;2022-12-07T01:20:59;100539.28;;;-9.25;59.52
35443;BME280;21561;55.654;37.592;2022-12-07T01:23:26;100510.63;;;-9.27;59.45
35443;BME280;21561;55.654;37.592;2022-12-07T01:25:58;100507.31;;;-9.26;58.92
35443;BME280;21561;55.654;37.592;2022-12-07T01:28:25;100506.31;;;-9.28;58.84
35443;BME280;21561;55.654;37.592;2022-12-07T01:30:59;100507.31;;;-9.26;59.37
35443;BME280;21561;55.654;37.592;2022-12-07T01:33:28;100515.63;;;-9.27;59.24
35443;BME280;21561;55.654;37.592;2022-12-07T01:38:43;100515.38;;;-9.30;59.29
35443;BME280;21561;55.654;37.592;2022-12-07T01:41:10;100510.34;;;-9.30;59.07
35443;BME280;21561;55.654;37.592;2022-12-07T01:46:36;100501.53;;;-9.35;59.23
35443;BME280;21561;55.654;37.592;2022-12-07T01:49:06;100506.56;;;-9.35;59.60
35443;BME280;21561;55.654;37.592;2022-12-07T01:51:34;100498.88;;;-9.37;59.24
35443;BME280;21561;55.654;37.592;2022-12-07T01:54:01;100498.00;;;-9.37;60.10
35443;BME280;21561;55.654;37.592;2022-12-07T01:56:29;100517.09;;;-9.39;60.14
35443;BME280;21561;55.654;37.592;2022-12-07T01:58:57;100521.13;;;-9.42;60.02
35443;BME280;21561;55.654;37.592;2022-12-07T02:01:26;100528.38;;;-9.45;60.23
35443;BME280;21561;55.654;37.592;2022-12-07T02:03:53;100529.03;;;-9.47;60.56
35443;BME280;21561;55.654;37.592;2022-12-07T02:06:23;100532.13;;;-9.50;60.66
35443;BME280;21561;55.654;37.592;2022-12-07T02:08:51;100531.63;;;-9.56;61.11
35443;BME280;21561;55.654;37.592;2022-12-07T02:11:19;100541.66;;;-9.56;61.12
35443;BME280;21561;55.654;37.592;2022-12-07T02:13:47;100551.72;;;-9.56;61.25
35443;BME280;21561;55.654;37.592;2022-12-07T02:27:01;100562.34;;;-9.69;61.80
35443;BME280;21561;55.654;37.592;2022-12-07T02:29:35;100557.38;;;-9.77;62.28
35443;BME280;21561;55.654;37.592;2022-12-07T02:35:11;100569.72;;;-9.89;62.61
35443;BME280;21561;55.654;37.592;2022-12-07T02:40:36;100606.44;;;-10.00;63.07
35443;BME280;21561;55.654;37.592;2022-12-07T02:43:10;100613.16;;;-10.09;63.78
35443;BME280;21561;55.654;37.592;2022-12-07T02:45:40;100630.44;;;-10.12;64.26
35443;BME280;21561;55.654;37.592;2022-12-07T02:48:10;100620.25;;;-10.14;64.36
35443;BME280;21561;55.654;37.592;2022-12-07T02:50:38;100613.97;;;-10.19;64.67
35443;BME280;21561;55.654;37.592;2022-12-07T02:53:05;100616.03;;;-10.24;64.96
35443;BME280;21561;55.654;37.592;2022-12-07T02:55:37;100629.31;;;-10.25;65.06
35443;BME280;21561;55.654;37.592;2022-12-07T02:58:14;100620.03;;;-10.26;64.84
35443;BME280;21561;55.654;37.592;2022-12-07T03:03:50;100622.25;;;-10.29;65.32
35443;BME280;21561;55.654;37.592;2022-12-07T03:06:28;100628.91;;;-10.29;65.60
35443;BME280;21561;55.654;37.592;2022-12-07T03:09:09;100622.25;;;-10.29;66.01
35443;BME280;21561;55.654;37.592;2022-12-07T03:12:13;100586.78;;;-10.23;65.12
35443;BME280;21561;55.654;37.592;2022-12-07T03:14:51;100573.66;;;-10.21;65.44
35443;BME280;21561;55.654;37.592;2022-12-07T03:17:25;100581.63;;;-10.25;65.55
35443;BME280;21561;55.654;37.592;2022-12-07T03:19:58;100591.66;;;-10.25;65.71
35443;BME280;21561;55.654;37.592;2022-12-07T03:22:29;100589.91;;;-10.26;65.74
35443;BME280;21561;55.654;37.592;2022-12-07T03:24:59;100576.94;;;-10.30;66.52
35443;BME280;21561;55.654;37.592;2022-12-07T03:27:34;100578.31;;;-10.34;66.91
35443;BME280;21561;55.654;37.592;2022-12-07T03:30:08;100568.56;;;-10.31;66.46
35443;BME280;21561;55.654;37.592;2022-12-07T03:32:45;100563.56;;;-10.31;66.60
35443;BME280;21561;55.654;37.592;2022-12-07T03:37:48;100541.94;;;-10.29;66.53
35443;BME280;21561;55.654;37.592;2022-12-07T03:40:32;100542.81;;;-10.28;66.49
35443;BME280;21561;55.654;37.592;2022-12-07T03:43:01;100545.84;;;-10.32;66.89
35443;BME280;21561;55.654;37.592;2022-12-07T03:45:43;100533.44;;;-10.31;66.46
35443;BME280;21561;55.654;37.592;2022-12-07T03:48:27;100542.97;;;-10.27;67.03
35443;BME280;21561;55.654;37.592;2022-12-07T03:54:00;100536.69;;;-10.32;67.80
35443;BME280;21561;55.654;37.592;2022-12-07T03:56:29;100539.09;;;-10.33;67.66
35443;BME280;21561;55.654;37.592;2022-12-07T03:58:56;100535.66;;;-10.34;68.01
35443;BME280;21561;55.654;37.592;2022-12-07T04:01:24;100529.91;;;-10.33;67.78
35443;BME280;21561;55.654;37.592;2022-12-07T04:03:51;100522.25;;;-10.34;67.98
35443;BME280;21561;55.654;37.592;2022-12-07T04:06:18;100522.88;;;-10.37;68.63
35443;BME280;21561;55.654;37.592;2022-12-07T04:08:45;100517.22;;;-10.34;68.83
35443;BME280;21561;55.654;37.592;2022-12-07T04:11:12;100517.84;;;-10.37;68.80
35443;BME280;21561;55.654;37.592;2022-12-07T04:13:38;100508.41;;;-10.40;69.15
35443;BME280;21561;55.654;37.592;2022-12-07T04:16:24;100513.13;;;-10.43;70.31
35443;BME280;21561;55.654;37.592;2022-12-07T04:18:51;100508.13;;;-10.43;69.98
35443;BME280;21561;55.654;37.592;2022-12-07T04:21:17;100502.50;;;-10.40;70.13
35443;BME280;21561;55.654;37.592;2022-12-07T04:23:44;100504.25;;;-10.39;70.22
35443;BME280;21561;55.654;37.592;2022-12-07T04:26:11;100505.75;;;-10.41;70.71
35443;BME280;21561;55.654;37.592;2022-12-07T04:28:37;100497.34;;;-10.42;70.88
35443;BME280;21561;55.654;37.592;2022-12-07T04:31:04;100500.72;;;-10.41;71.06
35443;BME280;21561;55.654;37.592;2022-12-07T04:33:31;100497.22;;;-10.43;71.59
35443;BME280;21561;55.654;37.592;2022-12-07T04:35:58;100490.44;;;-10.44;71.47
35443;BME280;21561;55.654;37.592;2022-12-07T04:38:25;100481.28;;;-10.44;71.18
35443;BME280;21561;55.654;37.592;2022-12-07T04:40:51;100477.13;;;-10.43;71.58
35443;BME280;21561;55.654;37.592;2022-12-07T04:43:18;100475.63;;;-10.41;72.16
35443;BME280;21561;55.654;37.592;2022-12-07T04:45:48;100474.16;;;-10.39;72.13
35443;BME280;21561;55.654;37.592;2022-12-07T04:48:15;100465.59;;;-10.41;72.29
35443;BME280;21561;55.654;37.592;2022-12-07T04:50:42;100477.41;;;-10.40;72.11
35443;BME280;21561;55.654;37.592;2022-12-07T04:53:12;100471.38;;;-10.42;72.89
35443;BME280;21561;55.654;37.592;2022-12-07T04:55:38;100477.91;;;-10.44;73.69
35443;BME280;21561;55.654;37.592;2022-12-07T04:58:05;100473.63;;;-10.45;73.82
35443;BME280;21561;55.654;37.592;2022-12-07T05:00:32;100473.63;;;-10.45;73.51
35443;BME280;21561;55.654;37.592;2022-12-07T05:02:59;100479.50;;;-10.45;73.64
35443;BME280;21561;55.654;37.592;2022-12-07T05:05:26;100473.63;;;-10.45;73.93
35443;BME280;21561;55.654;37.592;2022-12-07T05:07:53;100478.34;;;-10.48;75.21
35443;BME280;21561;55.654;37.592;2022-12-07T05:10:20;100472.47;;;-10.49;74.88
35443;BME280;21561;55.654;37.592;2022-12-07T05:12:46;100467.59;;;-10.47;74.63
35443;BME280;21561;55.654;37.592;2022-12-07T05:15:14;100475.97;;;-10.47;74.85
35443;BME280;21561;55.654;37.592;2022-12-07T05:17:41;100476.13;;;-10.45;75.44
35443;BME280;21561;55.654;37.592;2022-12-07T05:20:09;100474.50;;;-10.45;75.62
35443;BME280;21561;55.654;37.592;2022-12-07T05:22:36;100476.84;;;-10.46;76.02
35443;BME280;21561;55.654;37.592;2022-12-07T05:25:03;100467.88;;;-10.44;76.08
35443;BME280;21561;55.654;37.592;2022-12-07T05:27:29;100464.59;;;-10.43;76.09
35443;BME280;21561;55.654;37.592;2022-12-07T05:29:56;100475.41;;;-10.44;76.90
35443;BME280;21561;55.654;37.592;2022-12-07T05:32:23;100464.59;;;-10.43;76.74
35443;BME280;21561;55.654;37.592;2022-12-07T05:34:50;100461.34;;;-10.42;77.19
35443;BME280;21561;55.654;37.592;2022-12-07T05:37:16;100459.72;;;-10.42;77.05
35443;BME280;21561;55.654;37.592;2022-12-07T05:39:43;100472.13;;;-10.43;77.68
35443;BME280;21561;55.654;37.592;2022-12-07T05:42:10;100463.56;;;-10.45;78.15
35443;BME280;21561;55.654;37.592;2022-12-07T05:44:42;100473.63;;;-10.45;78.37
35443;BME280;21561;55.654;37.592;2022-12-07T05:47:12;100464.19;;;-10.48;78.80
35443;BME280;21561;55.654;37.592;2022-12-07T05:49:40;100465.81;;;-10.48;78.94
35443;BME280;21561;55.654;37.592;2022-12-07T05:52:07;100459.19;;;-10.48;78.74
35443;BME280;21561;55.654;37.592;2022-12-07T05:54:34;100473.09;;;-10.51;79.64
35443;BME280;21561;55.654;37.592;2022-12-07T05:57:01;100463.06;;;-10.51;79.60
35443;BME280;21561;55.654;37.592;2022-12-07T05:59:27;100444.72;;;-10.50;80.03
35443;BME280;21561;55.654;37.592;2022-12-07T06:01:58;100454.47;;;-10.53;80.43
35443;BME280;21561;55.654;37.592;2022-12-07T06:04:28;100463.78;;;-10.52;80.57
35443;BME280;21561;55.654;37.592;2022-12-07T06:07:01;100454.09;;;-10.58;81.22
35443;BME280;21561;55.654;37.592;2022-12-07T06:09:34;100469.00;;;-10.60;81.34
35443;BME280;21561;55.654;37.592;2022-12-07T06:12:01;100467.97;;;-10.62;81.81
35443;BME280;21561;55.654;37.592;2022-12-07T06:14:47;100468.22;;;-10.59;81.18
35443;BME280;21561;55.654;37.592;2022-12-07T06:17:14;100468.13;;;-10.60;81.06
35443;BME280;21561;55.654;37.592;2022-12-07T06:19:41;100463.84;;;-10.61;82.06
35443;BME280;21561;55.654;37.592;2022-12-07T06:22:09;100458.09;;;-10.60;82.08
35443;BME280;21561;55.654;37.592;2022-12-07T06:24:37;100457.94;;;-10.62;83.02
35443;BME280;21561;55.654;37.592;2022-12-07T06:27:04;100466.06;;;-10.64;83.12
35443;BME280;21561;55.654;37.592;2022-12-07T06:29:32;100470.19;;;-10.65;83.47
35443;BME280;21561;55.654;37.592;2022-12-07T06:31:59;100452.94;;;-10.62;82.82
35443;BME280;21561;55.654;37.592;2022-12-07T06:34:27;100458.69;;;-10.63;83.61
35443;BME280;21561;55.654;37.592;2022-12-07T06:36:54;100453.94;;;-10.60;82.74
35443;BME280;21561;55.654;37.592;2022-12-07T06:39:24;100463.09;;;-10.60;83.70
35443;BME280;21561;55.654;37.592;2022-12-07T06:41:51;100459.56;;;-10.62;84.03
35443;BME280;21561;55.654;37.592;2022-12-07T06:44:18;100463.09;;;-10.60;84.03
35443;BME280;21561;55.654;37.592;2022-12-07T06:46:45;100469.28;;;-10.57;83.76
35443;BME280;21561;55.654;37.592;2022-12-07T06:49:12;100452.44;;;-10.58;84.32
35443;BME280;21561;55.654;37.592;2022-12-07T06:51:39;100469.28;;;-10.57;84.00
35443;BME280;21561;55.654;37.592;2022-12-07T06:54:10;100464.25;;;-10.57;84.26
35443;BME280;21561;55.654;37.592;2022-12-07T06:56:37;100456.44;;;-10.60;84.66
35443;BME280;21561;55.654;37.592;2022-12-07T06:59:05;100464.56;;;-10.62;85.30
35443;BME280;21561;55.654;37.592;2022-12-07T07:01:34;100457.19;;;-10.61;85.31
35443;BME280;21561;55.654;37.592;2022-12-07T07:04:02;100464.72;;;-10.61;85.06
35443;BME280;21561;55.654;37.592;2022-12-07T07:06:29;100464.25;;;-10.57;84.87
35443;BME280;21561;55.654;37.592;2022-12-07T07:08:56;100466.00;;;-10.56;84.66
35443;BME280;21561;55.654;37.592;2022-12-07T07:11:23;100466.88;;;-10.55;84.87
35443;BME280;21561;55.654;37.592;2022-12-07T07:13:50;100461.00;;;-10.56;85.12
35443;BME280;21561;55.654;37.592;2022-12-07T07:16:17;100477.81;;;-10.54;85.14
35443;BME280;21561;55.654;37.592;2022-12-07T07:18:44;100466.00;;;-10.56;85.20
35443;BME280;21561;55.654;37.592;2022-12-07T07:21:11;100459.50;;;-10.53;85.04
35443;BME280;21561;55.654;37.592;2022-12-07T07:23:38;100464.78;;;-10.50;85.37
35443;BME280;21561;55.654;37.592;2022-12-07T07:26:04;100460.66;;;-10.50;85.05
35443;BME280;21561;55.654;37.592;2022-12-07T07:28:31;100455.63;;;-10.50;85.10
35443;BME280;21561;55.654;37.592;2022-12-07T07:30:58;100455.03;;;-10.47;84.79
35443;BME280;21561;55.654;37.592;2022-12-07T07:33:25;100453.25;;;-10.48;84.52
35443;BME280;21561;55.654;37.592;2022-12-07T07:35:52;100455.03;;;-10.47;84.51
35443;BME280;21561;55.654;37.592;2022-12-07T07:38:18;100438.06;;;-10.50;84.62
35443;BME280;21561;55.654;37.592;2022-12-07T07:40:46;100442.97;;;-10.51;84.63
35443;BME280;21561;55.654;37.592;2022-12-07T07:43:13;100434.97;;;-10.47;84.17
35443;BME280;21561;55.654;37.592;2022-12-07T07:45:40;100438.50;;;-10.45;84.17
35443;BME280;21561;55.654;37.592;2022-12-07T07:48:07;100446.75;;;-10.46;84.58
35443;BME280;21561;55.654;37.592;2022-12-07T07:50:34;100442.28;;;-10.40;84.06
35443;BME280;21561;55.654;37.592;2022-12-07T07:53:00;100438.28;;;-10.38;84.17
35443;BME280;21561;55.654;37.592;2022-12-07T07:55:27;100438.56;;;-10.35;83.77
35443;BME280;21561;55.654;37.592;2022-12-07T07:57:54;100438.06;;;-10.31;83.62
35443;BME280;21561;55.654;37.592;2022-12-07T08:00:21;100431.53;;;-10.29;83.20
35443;BME280;21561;55.654;37.592;2022-12-07T08:02:48;100451.59;;;-10.29;83.44
35443;BME280;21561;55.654;37.592;2022-12-07T08:05:15;100433.56;;;-10.25;83.24
35443;BME280;21561;55.654;37.592;2022-12-07T08:07:43;100424.06;;;-10.19;83.13
35443;BME280;21561;55.654;37.592;2022-12-07T08:10:12;100427.88;;;-10.13;83.09
35443;BME280;21561;55.654;37.592;2022-12-07T08:12:40;100420.72;;;-10.09;82.99
35443;BME280;21561;55.654;37.592;2022-12-07T08:15:29;100420.34;;;-10.03;82.51
35443;BME280;21561;55.654;37.592;2022-12-07T08:17:56;100427.66;;;-9.96;81.76
35443;BME280;21561;55.654;37.592;2022-12-07T08:20:23;100433.03;;;-9.83;81.42
35443;BME280;21561;55.654;37.592;2022-12-07T08:22:49;100421.53;;;-9.70;80.93
35443;BME280;21561;55.654;37.592;2022-12-07T08:25:17;100419.00;;;-9.60;80.61
35443;BME280;21561;55.654;37.592;2022-12-07T08:27:44;100410.63;;;-9.50;79.88
35443;BME280;21561;55.654;37.592;2022-12-07T08:30:11;100428.59;;;-9.46;79.82
35443;BME280;21561;55.654;37.592;2022-12-07T08:32:39;100420.31;;;-9.45;79.07
35443;BME280;21561;55.654;37.592;2022-12-07T08:35:07;100405.75;;;-9.49;78.97
35443;BME280;21561;55.654;37.592;2022-12-07T08:37:35;100417.94;;;-9.43;79.03
35443;BME280;21561;55.654;37.592;2022-12-07T08:40:03;100407.25;;;-9.41;78.15
35443;BME280;21561;55.654;37.592;2022-12-07T08:42:31;100407.91;;;-9.43;77.91
35443;BME280;21561;55.654;37.592;2022-12-07T08:45:08;100413.53;;;-9.46;78.35
35443;BME280;21561;55.654;37.592;2022-12-07T08:47:43;100402.50;;;-9.37;78.28
35443;BME280;21561;55.654;37.592;2022-12-07T08:50:12;100400.72;;;-9.38;77.47
35443;BME280;21561;55.654;37.592;2022-12-07T08:52:40;100406.53;;;-9.29;77.63
35443;BME280;21561;55.654;37.592;2022-12-07T08:55:10;100393.97;;;-9.19;77.40
35443;BME280;21561;55.654;37.592;2022-12-07T08:57:38;100393.97;;;-9.19;76.57
35443;BME280;21561;55.654;37.592;2022-12-07T09:00:13;100390.19;;;-9.14;76.45
35443;BME280;21561;55.654;37.592;2022-12-07T09:02:40;100387.69;;;-9.14;76.12
35443;BME280;21561;55.654;37.592;2022-12-07T09:05:07;100388.69;;;-9.12;75.33
35443;BME280;21561;55.654;37.592;2022-12-07T09:07:43;100382.16;;;-9.10;75.35
35443;BME280;21561;55.654;37.592;2022-12-07T09:10:11;100375.75;;;-9.06;74.83
35443;BME280;21561;55.654;37.592;2022-12-07T09:12:38;100375.63;;;-8.97;74.82
35443;BME280;21561;55.654;37.592;2022-12-07T09:15:06;100374.34;;;-8.92;74.41
35443;BME280;21561;55.654;37.592;2022-12-07T09:17:33;100369.34;;;-8.82;73.98
35443;BME280;21561;55.654;37.592;2022-12-07T09:20:00;100368.69;;;-8.79;73.58
35443;BME280;21561;55.654;37.592;2022-12-07T09:22:30;100369.81;;;-8.76;73.03
35443;BME280;21561;55.654;37.592;2022-12-07T09:25:00;100369.19;;;-8.73;73.01
35443;BME280;21561;55.654;37.592;2022-12-07T09:27:29;100364.03;;;-8.75;72.21
35443;BME280;21561;55.654;37.592;2022-12-07T09:29:56;100345.16;;;-8.70;72.33
35443;BME280;21561;55.654;37.592;2022-12-07T09:32:23;100345.03;;;-8.61;72.20
35443;BME280;21561;55.654;37.592;2022-12-07T09:34:50;100347.16;;;-8.55;71.61
35443;BME280;21561;55.654;37.592;2022-12-07T09:37:17;100336.03;;;-8.47;71.07
35443;BME280;21561;55.654;37.592;2022-12-07T09:39:44;100336.28;;;-8.44;70.53
35443;BME280;21561;55.654;37.592;2022-12-07T09:42:37;100345.94;;;-8.38;70.93
35443;BME280;21561;55.654;37.592;2022-12-07T09:45:10;100322.59;;;-8.48;69.72
35443;BME280;21561;55.654;37.592;2022-12-07T09:47:38;100332.78;;;-8.46;70.03
35443;BME280;21561;55.654;37.592;2022-12-07T09:50:12;100336.75;;;-8.38;69.58
35443;BME280;21561;55.654;37.592;2022-12-07T09:52:40;100326.03;;;-8.35;69.06
35443;BME280;21561;55.654;37.592;2022-12-07T09:55:11;100320.59;;;-8.30;69.36
35443;BME280;21561;55.654;37.592;2022-12-07T09:57:39;100309.91;;;-8.27;68.38
35443;BME280;21561;55.654;37.592;2022-12-07T10:00:13;100322.84;;;-8.22;68.77
35443;BME280;21561;55.654;37.592;2022-12-07T10:03:04;100302.06;;;-8.20;68.50
35443;BME280;21561;55.654;37.592;2022-12-07T10:05:42;100311.91;;;-8.23;68.45
35443;BME280;21561;55.654;37.592;2022-12-07T10:08:12;100297.66;;;-8.22;67.96
35443;BME280;21561;55.654;37.592;2022-12-07T10:10:40;100292.00;;;-8.20;67.32
35443;BME280;21561;55.654;37.592;2022-12-07T10:13:10;100300.88;;;-8.13;67.53
35443;BME280;21561;55.654;37.592;2022-12-07T10:15:49;100281.22;;;-8.07;66.92
35443;BME280;21561;55.654;37.592;2022-12-07T10:18:52;100278.19;;;-8.03;66.60
35443;BME280;21561;55.654;37.592;2022-12-07T10:21:14;100279.88;;;-7.92;66.09
35443;BME280;21561;55.654;37.592;2022-12-07T10:24:02;100278.69;;;-7.85;66.42
35443;BME280;21561;55.654;37.592;2022-12-07T10:26:34;100266.75;;;-7.88;66.14
35443;BME280;21561;55.654;37.592;2022-12-07T10:31:40;100268.88;;;-7.70;65.21
35443;BME280;21561;55.654;37.592;2022-12-07T10:34:31;100253.31;;;-7.42;64.88
35443;BME280;21561;55.654;37.592;2022-12-07T10:39:53;100200.06;;;-6.88;62.66
35443;BME280;21561;55.654;37.592;2022-12-07T10:42:26;100186.44;;;-6.66;61.42
35443;BME280;21561;55.654;37.592;2022-12-07T10:45:09;100164.81;;;-6.26;60.79
35443;BME280;21561;55.654;37.592;2022-12-07T10:48:26;100113.75;;;-6.08;58.43
35443;BME280;21561;55.654;37.592;2022-12-07T10:51:12;100125.16;;;-6.02;59.43
35443;BME280;21561;55.654;37.592;2022-12-07T10:57:00;100138.81;;;-6.11;60.15
35443;BME280;21561;55.654;37.592;2022-12-07T10:59:36;100159.50;;;-6.17;59.78
35443;BME280;21561;55.654;37.592;2022-12-07T11:02:22;100138.34;;;-6.06;58.56
35443;BME280;21561;55.654;37.592;2022-12-07T11:10:35;100084.94;;;-5.99;56.86
35443;BME280;21561;55.654;37.592;2022-12-07T11:15:53;100084.88;;;-6.12;56.73
35443;BME280;21561;55.654;37.592;2022-12-07T11:18:27;100106.84;;;-6.11;57.66
35443;BME280;21561;55.654;37.592;2022-12-07T11:29:44;100095.81;;;-5.86;57.50
35443;BME280;21561;55.654;37.592;2022-12-07T11:37:31;100121.44;;;-6.32;57.72
35443;BME280;21561;55.654;37.592;2022-12-07T11:40:26;100140.78;;;-6.32;58.77
35443;BME280;21561;55.654;37.592;2022-12-07T11:45:32;100138.75;;;-6.50;58.30
35443;BME280;21561;55.654;37.592;2022-12-07T11:50:40;100198.94;;;-7.03;60.81
35443;BME280;21561;55.654;37.592;2022-12-07T12:03:52;100332.59;;;-8.05;65.15
35443;BME280;21561;55.654;37.592;2022-12-07T12:06:20;100337.38;;;-8.08;65.38
35443;BME280;21561;55.654;37.592;2022-12-07T12:20:27;100289.25;;;-8.01;65.61
35443;BME280;21561;55.654;37.592;2022-12-07T12:25:29;100288.00;;;-8.28;67.15
35443;BME280;21561;55.654;37.592;2022-12-07T12:27:59;100285.06;;;-8.45;67.59
35443;BME280;21561;55.654;37.592;2022-12-07T12:33:04;100285.25;;;-8.64;68.69
35443;BME280;21561;55.654;37.592;2022-12-07T12:35:36;100281.63;;;-8.77;69.08
35443;BME280;21561;55.654;37.592;2022-12-07T12:38:32;100265.41;;;-8.81;69.50
35443;BME280;21561;55.654;37.592;2022-12-07T12:41:02;100252.63;;;-8.94;69.79
35443;BME280;21561;55.654;37.592;2022-12-07T12:49:33;100251.78;;;-9.15;71.34
35443;BME280;21561;55.654;37.592;2022-12-07T12:52:45;100237.97;;;-9.21;71.73
35443;BME280;21561;55.654;37.592;2022-12-07T12:55:17;100240.66;;;-9.29;72.25
35443;BME280;21561;55.654;37.592;2022-12-07T13:00:47;100233.72;;;-9.42;73.12
35443;BME280;21561;55.654;37.592;2022-12-07T13:03:40;100227.09;;;-9.42;72.91
35443;BME280;21561;55.654;37.592;2022-12-07T13:08:56;100219.94;;;-9.47;74.06
35443;BME280;21561;55.654;37.592;2022-12-07T13:11:41;100225.06;;;-9.46;74.06
35443;BME280;21561;55.654;37.592;2022-12-07T13:14:39;100229.09;;;-9.48;74.33
35443;BME280;21561;55.654;37.592;2022-12-07T13:25:07;100218.03;;;-9.60;74.93
35443;BME280;21561;55.654;37.592;2022-12-07T13:27:38;100215.16;;;-9.65;75.39
35443;BME280;21561;55.654;37.592;2022-12-07T13:30:15;100213.38;;;-9.66;75.20
35443;BME280;21561;55.654;37.592;2022-12-07T13:32:43;100218.78;;;-9.71;75.42
35443;BME280;21561;55.654;37.592;2022-12-07T13:35:33;100212.91;;;-9.72;75.62
35443;BME280;21561;55.654;37.592;2022-12-07T13:38:28;100209.25;;;-9.75;75.42
35443;BME280;21561;55.654;37.592;2022-12-07T13:41:03;100203.09;;;-9.79;75.62
35443;BME280;21561;55.654;37.592;2022-12-07T13:43:31;100190.94;;;-9.85;75.96
35443;BME280;21561;55.654;37.592;2022-12-07T13:45:58;100207.59;;;-9.85;76.16
35443;BME280;21561;55.654;37.592;2022-12-07T13:48:44;100202.97;;;-9.81;75.88
35443;BME280;21561;55.654;37.592;2022-12-07T13:51:23;100210.13;;;-9.85;75.99
35443;BME280;21561;55.654;37.592;2022-12-07T13:54:11;100196.81;;;-9.84;76.00
35443;BME280;21561;55.654;37.592;2022-12-07T13:56:38;100192.31;;;-9.88;76.32
35443;BME280;21561;55.654;37.592;2022-12-07T13:59:14;100194.81;;;-9.88;76.09
35443;BME280;21561;55.654;37.592;2022-12-07T14:01:42;100193.91;;;-9.89;76.15
35443;BME280;21561;55.654;37.592;2022-12-07T14:04:34;100198.94;;;-9.89;76.39
35443;BME280;21561;55.654;37.592;2022-12-07T14:07:21;100199.56;;;-9.91;76.32
35443;BME280;21561;55.654;37.592;2022-12-07T14:10:04;100185.38;;;-9.91;76.30
35443;BME280;21561;55.654;37.592;2022-12-07T14:12:34;100189.41;;;-9.93;76.27
35443;BME280;21561;55.654;37.592;2022-12-07T14:15:02;100181.75;;;-9.94;76.13
35443;BME280;21561;55.654;37.592;2022-12-07T14:17:30;100204.97;;;-9.97;76.60
35443;BME280;21561;55.654;37.592;2022-12-07T14:19:58;100196.19;;;-9.92;76.21
35443;BME280;21561;55.654;37.592;2022-12-07T14:22:32;100181.59;;;-9.96;76.47
35443;BME280;21561;55.654;37.592;2022-12-07T14:27:33;100190.66;;;-9.98;76.79
35443;BME280;21561;55.654;37.592;2022-12-07T14:30:02;100195.66;;;-9.98;76.52
35443;BME280;21561;55.654;37.592;2022-12-07T14:32:30;100181.38;;;-9.99;77.20
35443;BME280;21561;55.654;37.592;2022-12-07T14:35:07;100169.56;;;-10.00;77.07
35443;BME280;21561;55.654;37.592;2022-12-07T14:37:34;100184.63;;;-10.00;76.95
35443;BME280;21561;55.654;37.592;2022-12-07T14:40:01;100162.81;;;-10.01;77.37
35443;BME280;21561;55.654;37.592;2022-12-07T14:42:30;100162.81;;;-10.01;77.05
35443;BME280;21561;55.654;37.592;2022-12-07T14:44:58;100187.91;;;-10.01;77.46
35443;BME280;21561;55.654;37.592;2022-12-07T14:47:26;100181.13;;;-10.02;77.40
35443;BME280;21561;55.654;37.592;2022-12-07T14:50:14;100179.34;;;-10.03;77.53
35443;BME280;21561;55.654;37.592;2022-12-07T14:52:45;100174.22;;;-10.05;77.80